createdAt,value
2023-07-06T00:02:14.817Z,101366.34
2023-07-06T00:05:19.262Z,101369.75
2023-07-06T00:08:24.462Z,101376.69
2023-07-06T00:11:34.706Z,101379.44
2023-07-06T00:14:39.338Z,101383.91
2023-07-06T00:17:43.226Z,101389.22
2023-07-06T00:20:50.798Z,101389.91
2023-07-06T00:23:56.661Z,101387.66
2023-07-06T00:27:00.533Z,101400.13
2023-07-06T00:30:17.025Z,101411.44
2023-07-06T00:33:22.543Z,101406.41
2023-07-06T00:36:26.911Z,101411.44
2023-07-06T00:39:32.090Z,101420.56
2023-07-06T00:42:40.879Z,101414.59
2023-07-06T00:45:50.415Z,101416.81
2023-07-06T00:48:56.645Z,101426.28
2023-07-06T00:52:02.099Z,101415.78
2023-07-06T00:55:10.667Z,101424.56
2023-07-06T00:58:23.652Z,101425.50
2023-07-06T01:01:27.982Z,101421.38
2023-07-06T01:04:32.743Z,101425.91
2023-07-06T01:07:42.095Z,101429.34
2023-07-06T01:10:49.477Z,101425.69
2023-07-06T01:13:55.289Z,101432.63
2023-07-06T01:17:09.782Z,101434.31
2023-07-06T01:20:29.345Z,101434.31
2023-07-06T01:24:12.594Z,101437.66
2023-07-06T01:28:02.327Z,101435.75
2023-07-06T01:31:37.705Z,101442.53
2023-07-06T01:34:50.218Z,101447.84
2023-07-06T01:37:56.225Z,101445.06
2023-07-06T01:41:01.131Z,101443.97
2023-07-06T01:44:05.774Z,101445.78
2023-07-06T01:47:12.399Z,101451.94
2023-07-06T01:50:20.136Z,101444.91
2023-07-06T01:53:39.355Z,101449.44
2023-07-06T01:56:52.426Z,101446.66
2023-07-06T02:00:06.200Z,101443.16
2023-07-06T02:03:13.576Z,101440.63
2023-07-06T02:06:18.555Z,101452.84
2023-07-06T02:09:24.082Z,101452.06
2023-07-06T02:12:27.979Z,101455.59
2023-07-06T02:15:32.746Z,101454.59
2023-07-06T02:18:38.330Z,101453.84
2023-07-06T02:21:42.829Z,101452.91
2023-07-06T02:24:46.937Z,101463.25
2023-07-06T02:27:50.874Z,101464.22
2023-07-06T02:30:55.346Z,101452.78
2023-07-06T02:34:00.932Z,101463.38
2023-07-06T02:37:05.558Z,101458.31
2023-07-06T02:40:12.492Z,101458.31
2023-07-06T02:43:16.857Z,101465.41
2023-07-06T02:46:21.079Z,101465.47
2023-07-06T02:49:26.450Z,101465.72
2023-07-06T02:52:30.443Z,101464.88
2023-07-06T02:55:34.459Z,101464.19
2023-07-06T02:58:38.383Z,101466.81
2023-07-06T03:01:42.172Z,101473.22
2023-07-06T03:04:47.892Z,101474.97
2023-07-06T03:07:52.999Z,101483.88
2023-07-06T03:10:57.238Z,101481.34
2023-07-06T03:14:03.946Z,101490.28
2023-07-06T03:17:08.760Z,101485.03
2023-07-06T03:20:15.991Z,101484.19
2023-07-06T03:23:20.051Z,101483.38
2023-07-06T03:26:25.519Z,101495.66
2023-07-06T03:29:32.125Z,101493.03
2023-07-06T03:32:39.191Z,101496.47
2023-07-06T03:35:44.756Z,101502.69
2023-07-06T03:38:50.821Z,101503.63
2023-07-06T03:41:54.847Z,101500.00
2023-07-06T03:44:59.074Z,101503.38
2023-07-06T03:48:03.167Z,101507.97
2023-07-06T03:51:09.767Z,101506.22
2023-07-06T03:54:13.562Z,101513.59
2023-07-06T03:57:18.518Z,101509.56
2023-07-06T04:00:23.098Z,101504.63
2023-07-06T04:03:27.607Z,101503.56
2023-07-06T04:06:32.958Z,101504.81
2023-07-06T04:09:37.632Z,101508.06
2023-07-06T04:12:41.509Z,101505.03
2023-07-06T04:15:50.459Z,101513.59
2023-07-06T04:18:54.486Z,101512.75
2023-07-06T04:22:00.052Z,101515.22
2023-07-06T04:25:04.005Z,101514.72
2023-07-06T04:28:12.007Z,101512.56
2023-07-06T04:31:16.817Z,101506.81
2023-07-06T04:34:22.861Z,101501.75
2023-07-06T04:37:28.753Z,101506.94
2023-07-06T04:40:32.670Z,101512.13
2023-07-06T04:43:36.487Z,101508.47
2023-07-06T04:46:41.466Z,101506.31
2023-07-06T04:49:46.524Z,101503.78
2023-07-06T04:52:54.809Z,101507.81
2023-07-06T04:56:01.252Z,101501.59
2023-07-06T04:59:05.417Z,101514.31
2023-07-06T05:02:09.362Z,101511.41
2023-07-06T05:05:14.056Z,101506.84
2023-07-06T05:08:23.192Z,101510.28
2023-07-06T05:11:27.737Z,101503.94
2023-07-06T05:14:32.548Z,101500.69
2023-07-06T05:17:37.346Z,101512.44
2023-07-06T05:20:42.102Z,101529.50
2023-07-06T05:23:47.610Z,101512.84
2023-07-06T05:26:51.530Z,101532.72
2023-07-06T05:29:55.317Z,101515.63
2023-07-06T05:32:59.316Z,101516.03
2023-07-06T05:36:03.868Z,101508.75
2023-07-06T05:39:09.942Z,101529.31
2023-07-06T05:42:14.391Z,101528.06
2023-07-06T05:45:18.430Z,101519.50
2023-07-06T05:48:22.278Z,101528.16
2023-07-06T05:51:26.182Z,101539.81
2023-07-06T05:54:31.397Z,101542.31
2023-07-06T05:57:35.319Z,101533.59
2023-07-06T06:00:41.232Z,101530.31
2023-07-06T06:03:46.555Z,101549.38
2023-07-06T06:06:55.606Z,101538.09
2023-07-06T06:10:01.340Z,101535.28
2023-07-06T06:13:05.332Z,101529.75
2023-07-06T06:16:10.231Z,101533.72
2023-07-06T06:19:14.111Z,101542.25
2023-07-06T06:22:19.961Z,101541.59
2023-07-06T06:25:25.350Z,101547.66
2023-07-06T06:28:29.268Z,101548.72
2023-07-06T06:31:33.931Z,101553.59
2023-07-06T06:34:38.046Z,101552.63
2023-07-06T06:37:42.002Z,101569.16
2023-07-06T06:40:47.236Z,101553.25
2023-07-06T06:43:51.269Z,101551.75
2023-07-06T06:46:55.094Z,101585.09
2023-07-06T06:49:59.137Z,101565.13
2023-07-06T06:53:03.991Z,101571.72
2023-07-06T06:56:10.801Z,101559.50
2023-07-06T06:59:14.780Z,101580.88
2023-07-06T07:02:18.888Z,101564.28
2023-07-06T07:05:22.772Z,101571.09
2023-07-06T07:08:26.638Z,101589.28
2023-07-06T07:11:31.943Z,101589.25
2023-07-06T07:14:35.848Z,101593.47
2023-07-06T07:17:40.226Z,101586.78
2023-07-06T07:20:44.903Z,101610.41
2023-07-06T07:23:51.035Z,101608.22
2023-07-06T07:26:56.375Z,101594.97
2023-07-06T07:30:00.236Z,101619.00
2023-07-06T07:33:05.064Z,101595.47
2023-07-06T07:36:10.657Z,101604.16
2023-07-06T07:39:15.807Z,101633.66
2023-07-06T07:42:21.283Z,101613.56
2023-07-06T07:45:25.434Z,101626.22
2023-07-06T07:48:31.272Z,101622.38
2023-07-06T07:51:35.064Z,101617.13
2023-07-06T07:54:38.883Z,101617.72
2023-07-06T07:57:45.679Z,101641.59
2023-07-06T08:00:54.090Z,101624.03
2023-07-06T08:03:58.711Z,101629.78
2023-07-06T08:07:02.572Z,101631.72
2023-07-06T08:10:09.915Z,101628.72
2023-07-06T08:13:15.068Z,101622.03
2023-07-06T08:16:21.518Z,101638.78
2023-07-06T08:19:46.859Z,101636.84
2023-07-06T08:22:49.444Z,101625.53
2023-07-06T08:25:53.649Z,101651.63
2023-07-06T08:28:59.030Z,101635.19
2023-07-06T08:32:05.013Z,101662.66
2023-07-06T08:35:10.334Z,101641.16
2023-07-06T08:38:15.397Z,101650.41
2023-07-06T08:41:31.071Z,101643.97
2023-07-06T08:44:37.382Z,101656.84
2023-07-06T08:47:41.378Z,101650.16
2023-07-06T08:50:53.311Z,101654.88
2023-07-06T08:54:02.810Z,101674.09
2023-07-06T08:57:16.903Z,101644.94
2023-07-06T09:00:26.960Z,101642.28
2023-07-06T09:03:38.715Z,101643.28
2023-07-06T09:06:51.015Z,101676.94
2023-07-06T09:10:06.959Z,101657.94
2023-07-06T09:13:27.628Z,101674.03
2023-07-06T09:16:38.046Z,101676.00
2023-07-06T09:19:43.412Z,101651.56
2023-07-06T09:22:49.518Z,101647.97
2023-07-06T09:25:57.675Z,101644.38
2023-07-06T09:29:21.028Z,101664.22
2023-07-06T09:32:26.381Z,101648.78
2023-07-06T09:35:32.565Z,101655.63
2023-07-06T09:38:46.804Z,101683.03
2023-07-06T09:41:52.431Z,101674.16
2023-07-06T09:44:57.301Z,101677.09
2023-07-06T09:48:09.707Z,101694.59
2023-07-06T09:51:23.295Z,101684.47
2023-07-06T09:54:35.476Z,101698.34
2023-07-06T09:57:41.420Z,101675.56
2023-07-06T10:00:58.212Z,101694.41
2023-07-06T10:04:28.672Z,101701.22
2023-07-06T10:07:46.972Z,101699.19
2023-07-06T10:11:10.904Z,101681.91
2023-07-06T10:14:28.078Z,101687.13
2023-07-06T10:17:38.774Z,101678.34
2023-07-06T10:20:55.174Z,101702.69
2023-07-06T10:24:14.244Z,101709.59
2023-07-06T10:27:27.091Z,101727.97
2023-07-06T10:30:38.161Z,101707.19
2023-07-06T10:33:58.406Z,101705.59
2023-07-06T10:37:07.347Z,101689.25
2023-07-06T10:40:22.228Z,101696.00
2023-07-06T10:43:28.623Z,101687.25
2023-07-06T10:46:36.719Z,101685.53
2023-07-06T10:50:28.838Z,101698.72
2023-07-06T10:53:41.078Z,101689.41
2023-07-06T10:56:49.629Z,101687.00
2023-07-06T11:00:06.312Z,101693.19
2023-07-06T11:03:18.068Z,101710.41
2023-07-06T11:06:55.601Z,101715.41
2023-07-06T11:10:46.266Z,101713.38
2023-07-06T11:13:54.774Z,101708.69
2023-07-06T11:17:06.043Z,101711.03
2023-07-06T11:20:23.485Z,101712.19
2023-07-06T11:23:37.964Z,101709.97
2023-07-06T11:26:50.330Z,101715.00
2023-07-06T11:30:02.944Z,101724.72
2023-07-06T11:33:19.523Z,101712.63
2023-07-06T11:36:39.217Z,101713.66
2023-07-06T11:39:59.605Z,101716.06
2023-07-06T11:43:30.077Z,101712.97
2023-07-06T11:46:51.154Z,101709.16
2023-07-06T11:49:58.157Z,101701.25
2023-07-06T11:53:10.776Z,101709.41
2023-07-06T11:56:34.152Z,101712.81
2023-07-06T11:59:41.907Z,101717.84
2023-07-06T12:02:54.955Z,101724.47
2023-07-06T12:06:01.758Z,101717.31
2023-07-06T12:09:08.106Z,101744.53
2023-07-06T12:12:24.607Z,101730.38
2023-07-06T12:15:30.905Z,101734.84
2023-07-06T12:18:36.116Z,101740.78
2023-07-06T12:21:44.768Z,101723.00
2023-07-06T12:24:48.818Z,101719.66
2023-07-06T12:27:58.885Z,101733.81
2023-07-06T12:31:05.579Z,101786.31
2023-07-06T12:34:10.125Z,101785.47
2023-07-06T12:37:18.292Z,101727.59
2023-07-06T12:40:26.584Z,101764.25
2023-07-06T12:43:35.312Z,101732.94
2023-07-06T12:47:19.310Z,101739.19
2023-07-06T12:50:27.869Z,101738.81
2023-07-06T12:53:35.248Z,101754.03
2023-07-06T12:56:42.236Z,101766.72
2023-07-06T12:59:46.118Z,101764.44
2023-07-06T13:02:59.398Z,101734.16
2023-07-06T13:06:03.348Z,101737.09
2023-07-06T13:09:09.123Z,101770.69
2023-07-06T13:12:22.249Z,101744.19
2023-07-06T13:15:30.109Z,101769.59
2023-07-06T13:18:35.617Z,101768.88
2023-07-06T13:21:41.994Z,101754.84
2023-07-06T13:24:47.677Z,101776.13
2023-07-06T13:27:52.561Z,101784.06
2023-07-06T13:30:56.999Z,101771.97
2023-07-06T13:34:02.375Z,101787.06
2023-07-06T13:37:16.197Z,101788.44
2023-07-06T13:40:22.298Z,101788.19
2023-07-06T13:43:26.042Z,101796.56
2023-07-06T13:46:32.590Z,101783.06
2023-07-06T13:49:37.865Z,101775.59
2023-07-06T13:52:42.647Z,101776.09
2023-07-06T13:55:52.001Z,101778.66
2023-07-06T13:58:56.139Z,101780.34
2023-07-06T14:02:04.001Z,101781.22
2023-07-06T14:05:15.010Z,101768.00
2023-07-06T14:08:20.290Z,101779.38
2023-07-06T14:11:24.082Z,101770.00
2023-07-06T14:14:27.858Z,101797.19
2023-07-06T14:17:33.574Z,101775.31
2023-07-06T14:20:42.020Z,101769.69
2023-07-06T14:23:45.850Z,101788.59
2023-07-06T14:26:49.722Z,101769.75
2023-07-06T14:29:54.267Z,101777.16
2023-07-06T14:32:59.717Z,101771.22
2023-07-06T14:36:05.190Z,101774.38
2023-07-06T14:39:09.633Z,101778.41
2023-07-06T14:42:15.282Z,101792.34
2023-07-06T14:45:19.371Z,101811.00
2023-07-06T14:48:23.328Z,101799.09
2023-07-06T14:51:28.602Z,101783.41
2023-07-06T14:54:32.789Z,101795.78
2023-07-06T14:57:37.055Z,101804.16
2023-07-06T15:00:41.108Z,101807.00
2023-07-06T15:03:45.234Z,101815.47
2023-07-06T15:06:50.457Z,101810.06
2023-07-06T15:09:54.651Z,101794.19
2023-07-06T15:12:58.757Z,101802.31
2023-07-06T15:16:03.005Z,101795.34
2023-07-06T15:19:07.605Z,101804.03
2023-07-06T15:22:12.948Z,101803.25
2023-07-06T15:25:16.835Z,101796.03
2023-07-06T15:28:21.019Z,101829.25
2023-07-06T15:31:27.764Z,101822.81
2023-07-06T15:34:34.486Z,101793.63
2023-07-06T15:37:41.222Z,101816.44
2023-07-06T15:40:52.223Z,101785.22
2023-07-06T15:43:56.612Z,101775.34
2023-07-06T15:47:00.695Z,101785.75
2023-07-06T15:50:04.993Z,101811.19
2023-07-06T15:53:12.044Z,101765.72
2023-07-06T15:56:17.073Z,101789.41
2023-07-06T15:59:22.353Z,101822.59
2023-07-06T16:02:28.699Z,101785.59
2023-07-06T16:05:33.106Z,101777.66
2023-07-06T16:08:38.502Z,101821.97
2023-07-06T16:11:42.881Z,101792.16
2023-07-06T16:14:47.148Z,101787.31
2023-07-06T16:17:51.298Z,101807.63
2023-07-06T16:21:02.623Z,101814.03
2023-07-06T16:24:08.474Z,101778.09
2023-07-06T16:27:12.219Z,101809.66
2023-07-06T16:30:20.825Z,101779.53
2023-07-06T16:33:24.632Z,101795.63
2023-07-06T16:36:28.549Z,101792.41
2023-07-06T16:39:33.803Z,101769.09
2023-07-06T16:42:37.728Z,101790.06
2023-07-06T16:45:41.732Z,101780.78
2023-07-06T16:48:45.693Z,101776.25
2023-07-06T16:51:49.698Z,101816.38
2023-07-06T16:54:55.145Z,101791.66
2023-07-06T16:57:59.058Z,101784.56
2023-07-06T17:01:07.888Z,101786.78
2023-07-06T17:04:11.936Z,101783.25
2023-07-06T17:07:15.913Z,101805.69
2023-07-06T17:10:21.609Z,101833.59
2023-07-06T17:13:25.372Z,101822.81
2023-07-06T17:16:29.601Z,101832.91
2023-07-06T17:19:33.607Z,101807.09
2023-07-06T17:22:37.716Z,101788.34
2023-07-06T17:25:43.296Z,101816.94
2023-07-06T17:28:47.609Z,101827.69
2023-07-06T17:31:51.534Z,101830.75
2023-07-06T17:34:55.601Z,101825.41
2023-07-06T17:38:00.289Z,101804.44
2023-07-06T17:41:09.411Z,101815.00
2023-07-06T17:44:13.661Z,101800.53
2023-07-06T17:47:17.520Z,101803.66
2023-07-06T17:50:21.897Z,101824.34
2023-07-06T17:53:26.529Z,101829.78
2023-07-06T17:56:31.827Z,101824.78
2023-07-06T17:59:35.738Z,101813.66
2023-07-06T18:02:39.809Z,101814.53
2023-07-06T18:05:48.372Z,101832.31
2023-07-06T18:08:52.625Z,101822.25
2023-07-06T18:11:57.935Z,101833.56
2023-07-06T18:15:03.559Z,101825.78
2023-07-06T18:18:07.648Z,101839.09
2023-07-06T18:21:11.939Z,101819.66
2023-07-06T18:24:16.296Z,101831.44
2023-07-06T18:27:21.644Z,101821.91
2023-07-06T18:30:25.700Z,101839.56
2023-07-06T18:33:29.784Z,101835.72
2023-07-06T18:36:33.837Z,101810.38
2023-07-06T18:39:39.950Z,101823.69
2023-07-06T18:42:45.498Z,101820.25
2023-07-06T18:45:49.477Z,101832.63
2023-07-06T18:48:53.265Z,101828.88
2023-07-06T18:51:57.085Z,101815.66
2023-07-06T18:55:01.132Z,101811.34
2023-07-06T18:58:06.632Z,101812.03
2023-07-06T19:01:12.480Z,101829.16
2023-07-06T19:04:16.942Z,101835.00
2023-07-06T19:07:20.853Z,101830.78
2023-07-06T19:10:25.205Z,101841.69
2023-07-06T19:13:30.556Z,101841.06
2023-07-06T19:16:35.358Z,101838.97
2023-07-06T19:19:39.225Z,101829.88
2023-07-06T19:22:53.309Z,101827.69
2023-07-06T19:26:00.866Z,101832.63
2023-07-06T19:29:06.296Z,101835.00
2023-07-06T19:32:17.216Z,101844.44
2023-07-06T19:35:21.936Z,101842.56
2023-07-06T19:38:25.921Z,101844.91
2023-07-06T19:41:30.068Z,101870.63
2023-07-06T19:44:35.310Z,101868.41
2023-07-06T19:47:39.723Z,101880.41
2023-07-06T19:50:43.565Z,101884.31
2023-07-06T19:53:48.237Z,101890.25
2023-07-06T19:56:52.022Z,101892.38
2023-07-06T19:59:57.402Z,101898.16
2023-07-06T20:03:01.772Z,101895.44
2023-07-06T20:06:06.698Z,101899.22
2023-07-06T20:09:10.441Z,101899.44
2023-07-06T20:12:17.745Z,101905.78
2023-07-06T20:15:23.841Z,101909.69
2023-07-06T20:18:28.176Z,101901.09
2023-07-06T20:21:31.896Z,101916.47
2023-07-06T20:24:36.148Z,101916.91
2023-07-06T20:27:39.998Z,101919.16
2023-07-06T20:30:46.675Z,101908.56
2023-07-06T20:33:50.806Z,101921.16
2023-07-06T20:36:54.814Z,101922.28
2023-07-06T20:39:58.764Z,101928.72
2023-07-06T20:43:02.782Z,101917.59
2023-07-06T20:46:08.292Z,101923.19
2023-07-06T20:49:12.446Z,101926.09
2023-07-06T20:52:17.210Z,101932.44
2023-07-06T20:55:21.123Z,101933.59
2023-07-06T20:58:25.110Z,101939.88
2023-07-06T21:01:30.603Z,101947.38
2023-07-06T21:04:34.421Z,101956.56
2023-07-06T21:07:38.168Z,101962.16
2023-07-06T21:10:42.852Z,101964.06
2023-07-06T21:13:46.874Z,101966.88
2023-07-06T21:16:52.296Z,101972.19
2023-07-06T21:19:56.256Z,101972.19
2023-07-06T21:23:00.456Z,101972.28
2023-07-06T21:26:04.354Z,101974.75
2023-07-06T21:29:11.284Z,101978.22
2023-07-06T21:32:16.698Z,101978.16
2023-07-06T21:35:20.776Z,101981.53
2023-07-06T21:38:24.642Z,101983.34
2023-07-06T21:41:28.434Z,101981.59
2023-07-06T21:44:32.634Z,101988.84
2023-07-06T21:47:39.158Z,101987.28
2023-07-06T21:50:43.110Z,101997.25
2023-07-06T21:53:46.904Z,101987.69
2023-07-06T21:56:50.643Z,101999.31
2023-07-06T21:59:54.575Z,101999.47
2023-07-06T22:02:59.945Z,101999.63
2023-07-06T22:06:07.035Z,102004.31
2023-07-06T22:09:10.942Z,102007.25
2023-07-06T22:12:14.778Z,102004.63
2023-07-06T22:15:29.572Z,102007.38
2023-07-06T22:18:39.924Z,102007.47
2023-07-06T22:21:43.901Z,102009.31
2023-07-06T22:24:47.732Z,102005.97
2023-07-06T22:27:51.735Z,102001.81
2023-07-06T22:31:00.482Z,102006.75
2023-07-06T22:34:06.139Z,102009.50
2023-07-06T22:37:10.001Z,102005.38
2023-07-06T22:40:14.422Z,102003.84
2023-07-06T22:43:18.779Z,102003.94
2023-07-06T22:46:23.688Z,102013.78
2023-07-06T22:49:30.802Z,102007.81
2023-07-06T22:52:34.811Z,102014.03
2023-07-06T22:55:40.147Z,102008.91
2023-07-06T22:58:43.898Z,102010.72
2023-07-06T23:01:48.072Z,102017.00
2023-07-06T23:04:54.282Z,102022.59
2023-07-06T23:07:59.738Z,102018.38
2023-07-06T23:11:04.433Z,102019.44
2023-07-06T23:14:10.556Z,102025.56
2023-07-06T23:17:15.314Z,102016.00
2023-07-06T23:20:21.844Z,102015.91
2023-07-06T23:23:26.694Z,102019.63
2023-07-06T23:26:34.789Z,102016.25
2023-07-06T23:29:38.839Z,102017.31
2023-07-06T23:32:49.742Z,102027.06
2023-07-06T23:35:55.450Z,102027.97
2023-07-06T23:39:00.297Z,102030.50
2023-07-06T23:42:04.567Z,102039.25
2023-07-06T23:45:10.477Z,102036.56
2023-07-06T23:48:14.411Z,102039.16
2023-07-06T23:51:23.344Z,102036.63
2023-07-06T23:54:27.899Z,102043.00
2023-07-06T23:57:31.879Z,102037.94
